Time;durP1;ratioP1;P1;durP2;ratioP2;P2;SDS_P1;SDS_P2;PMS_P1;PMS_P2;Temp;Humidity;BMP_temperature;BMP_pressure;BME280_temperature;BME280_humidity;BME280_pressure;Samples;Min_cycle;Max_cycle;Signal;HPM_P1;HPM_P2
2021/04/21 00:02:03;;;;;;;24.27;13.48;;;;;;;1.62;88.49;95424.84;5058913;28;20118;-66
2021/04/21 00:04:29;;;;;;;23.88;13.15;;;;;;;1.55;88.61;95425.72;5049874;28;20087;-66
2021/04/21 00:06:57;;;;;;;25.85;13.63;;;;;;;1.53;88.49;95419.94;5054617;28;20049;-66
2021/04/21 00:09:24;;;;;;;30.13;14.13;;;;;;;1.56;88.15;95416.91;5050679;28;20045;-66
2021/04/21 00:11:50;;;;;;;30.02;13.02;;;;;;;1.60;87.28;95426.88;5055548;28;20052;-66
2021/04/21 00:14:19;;;;;;;27.63;12.98;;;;;;;1.47;87.58;95418.19;5050471;28;20491;-67
2021/04/21 00:16:48;;;;;;;23.08;12.68;;;;;;;1.33;88.00;95416.75;5041874;28;20469;-66
2021/04/21 00:19:16;;;;;;;26.15;13.27;;;;;;;1.20;88.48;95421.00;5040749;28;20372;-67
2021/04/21 00:21:44;;;;;;;27.20;13.85;;;;;;;1.14;88.64;95429.66;5063509;28;20044;-67
2021/04/21 00:24:10;;;;;;;23.45;12.00;;;;;;;1.11;88.14;95424.88;5052457;28;20044;-66
2021/04/21 00:26:37;;;;;;;24.80;12.70;;;;;;;1.08;88.43;95427.91;5039135;28;20517;-67
2021/04/21 00:29:08;;;;;;;24.90;13.65;;;;;;;1.01;89.69;95424.56;5033175;28;20150;-66
2021/04/21 00:31:35;;;;;;;25.33;12.77;;;;;;;1.01;89.36;95419.38;5060617;28;20090;-67
2021/04/21 00:34:02;;;;;;;24.88;12.65;;;;;;;1.13;88.64;95417.69;5047436;28;20124;-66
2021/04/21 00:36:32;;;;;;;24.45;13.02;;;;;;;1.14;87.87;95408.91;5048983;28;20052;-67
2021/04/21 00:39:00;;;;;;;26.88;12.00;;;;;;;1.03;88.55;95417.38;5039891;28;20087;-66
2021/04/21 00:41:44;;;;;;;27.50;12.60;;;;;;;0.88;88.97;95414.28;5058472;28;20041;-66
2021/04/21 00:44:21;;;;;;;23.33;11.77;;;;;;;0.85;89.17;95405.94;5046679;28;20407;-66
2021/04/21 00:46:55;;;;;;;25.55;13.07;;;;;;;0.77;89.71;95402.81;5030512;28;20046;-67
2021/04/21 00:49:32;;;;;;;23.73;13.05;;;;;;;0.70;89.92;95397.66;5049425;28;20115;-67
2021/04/21 00:52:11;;;;;;;26.02;13.23;;;;;;;0.70;90.40;95397.66;5060202;28;20072;-67
2021/04/21 00:54:39;;;;;;;29.83;14.43;;;;;;;0.73;90.54;95392.06;5045392;28;20110;-67
2021/04/21 00:57:28;;;;;;;26.83;14.00;;;;;;;0.73;90.18;95397.25;5054547;28;20066;-68
2021/04/21 01:00:14;;;;;;;21.42;11.93;;;;;;;0.78;89.18;95388.88;5062905;28;20461;-67
2021/04/21 01:02:49;;;;;;;24.95;12.77;;;;;;;0.74;89.26;95393.66;5055432;28;20042;-66
2021/04/21 01:05:18;;;;;;;28.30;13.30;;;;;;;0.61;89.24;95389.38;5050991;28;20048;-66
2021/04/21 01:07:48;;;;;;;26.63;13.35;;;;;;;0.58;89.51;95389.00;5049289;28;20317;-67
2021/04/21 01:10:15;;;;;;;24.80;13.25;;;;;;;0.63;89.08;95386.56;5044978;28;20166;-67
2021/04/21 01:12:46;;;;;;;23.25;11.43;;;;;;;0.65;88.22;95384.56;5067062;28;20049;-67
2021/04/21 01:15:14;;;;;;;26.17;12.90;;;;;;;0.46;89.49;95381.91;5057368;28;20060;-67
2021/04/21 01:17:41;;;;;;;25.92;13.23;;;;;;;0.40;89.70;95382.72;5042809;28;20045;-67
2021/04/21 01:20:18;;;;;;;26.25;12.57;;;;;;;0.36;89.52;95384.16;5060058;28;20115;-67
2021/04/21 01:22:47;;;;;;;21.75;12.00;;;;;;;0.37;89.87;95383.13;5052694;28;20041;-67
2021/04/21 01:25:18;;;;;;;26.17;12.90;;;;;;;0.36;89.88;95381.56;5061918;28;20124;-67
2021/04/21 01:27:57;;;;;;;23.08;11.80;;;;;;;0.36;89.36;95373.78;5070170;28;20421;-67
2021/04/21 01:30:25;;;;;;;22.42;11.95;;;;;;;0.31;89.76;95378.78;5050984;28;20046;-67
2021/04/21 01:33:01;;;;;;;24.33;12.20;;;;;;;0.31;89.34;95383.97;5036722;28;20434;-67
2021/04/21 01:35:28;;;;;;;20.75;11.65;;;;;;;0.25;89.09;95383.00;5049269;28;20041;-67
2021/04/21 01:37:59;;;;;;;24.02;11.85;;;;;;;0.23;89.02;95379.03;5043877;28;20105;-67
2021/04/21 01:40:30;;;;;;;21.50;11.85;;;;;;;0.20;88.83;95376.84;5042459;28;20045;-66
2021/04/21 01:43:04;;;;;;;21.60;11.18;;;;;;;0.14;89.20;95376.69;5053301;28;20041;-67
2021/04/21 01:45:31;;;;;;;22.60;11.90;;;;;;;0.20;90.28;95376.84;5035330;28;20057;-67
2021/04/21 01:48:01;;;;;;;25.17;11.82;;;;;;;0.20;90.99;95382.03;5060789;28;20452;-66
2021/04/21 01:50:27;;;;;;;23.92;12.65;;;;;;;0.22;91.55;95385.22;5070527;28;20045;-66
2021/04/21 01:52:58;;;;;;;25.42;12.38;;;;;;;0.27;91.00;95383.56;5051728;28;20064;-66
2021/04/21 01:55:39;;;;;;;23.42;11.52;;;;;;;0.28;90.21;95381.78;5048692;28;20045;-66
2021/04/21 01:58:22;;;;;;;22.83;12.05;;;;;;;0.20;89.94;95376.84;5034012;28;20091;-67
2021/04/21 02:00:55;;;;;;;25.05;11.98;;;;;;;0.07;90.26;95388.88;5037075;28;20048;-66
2021/04/21 02:03:33;;;;;;;24.30;12.30;;;;;;;0.09;91.19;95388.66;5048954;28;20061;-67
2021/04/21 02:06:26;;;;;;;20.70;10.80;;;;;;;0.14;90.93;95394.81;5038460;28;20090;-66
2021/04/21 02:09:14;;;;;;;21.73;11.13;;;;;;;0.19;90.07;95393.38;5033947;28;20045;-67
2021/04/21 02:11:49;;;;;;;21.83;11.63;;;;;;;0.14;90.15;95388.81;5052299;28;20049;-67
2021/04/21 02:14:24;;;;;;;21.90;10.23;;;;;;;0.14;90.22;95389.63;5052260;28;20048;-67
2021/04/21 02:17:12;;;;;;;21.45;11.63;;;;;;;0.08;90.82;95390.44;5052345;28;20048;-66
2021/04/21 02:19:56;;;;;;;23.70;11.73;;;;;;;0.08;91.43;95385.25;5052326;28;20091;-67
2021/04/21 02:22:38;;;;;;;22.20;11.13;;;;;;;0.13;91.04;95388.03;5059603;28;20048;-66
2021/04/21 02:25:15;;;;;;;20.52;10.90;;;;;;;0.22;89.71;95390.41;5033683;28;20084;-66
2021/04/21 02:27:59;;;;;;;19.80;10.50;;;;;;;0.15;89.15;95380.84;5071448;28;20041;-67
2021/04/21 02:30:46;;;;;;;18.70;10.65;;;;;;;0.12;89.17;95389.03;5066590;28;20068;-67
2021/04/21 02:33:23;;;;;;;19.95;11.23;;;;;;;0.03;89.74;95387.69;5057219;28;20126;-66
2021/04/21 02:35:57;;;;;;;19.13;10.68;;;;;;;-0.02;89.88;95390.88;5051221;28;20463;-67
2021/04/21 02:38:35;;;;;;;22.45;11.25;;;;;;;-0.05;90.32;95388.69;5044074;28;20036;-67
2021/04/21 02:41:13;;;;;;;22.08;10.98;;;;;;;-0.02;90.23;95379.75;5068304;28;20037;-67
2021/04/21 02:43:38;;;;;;;19.05;10.85;;;;;;;0.04;89.41;95389.25;5055891;28;20090;-67
2021/04/21 02:46:09;;;;;;;19.52;10.10;;;;;;;-0.08;89.22;95376.19;5041995;28;20372;-66
2021/04/21 02:49:03;;;;;;;18.33;9.70;;;;;;;-0.14;89.68;95376.19;5053571;28;20037;-67
2021/04/21 02:52:10;;;;;;;21.30;10.88;;;;;;;-0.23;90.28;95379.03;5057398;28;20041;-66
2021/04/21 02:55:14;;;;;;;20.13;9.88;;;;;;;-0.24;90.83;95377.44;5045723;28;20071;-66
2021/04/21 02:57:54;;;;;;;20.75;10.10;;;;;;;-0.31;90.49;95376.66;5063779;28;20056;-66
2021/04/21 03:00:36;;;;;;;19.33;9.95;;;;;;;-0.28;90.36;95370.28;5053117;28;20068;-67
2021/04/21 03:03:24;;;;;;;22.50;10.45;;;;;;;-0.29;90.87;95369.47;5056700;28;20040;-66
2021/04/21 03:06:26;;;;;;;19.30;10.10;;;;;;;-0.32;90.20;95363.94;5043125;28;20041;-67
2021/04/21 03:09:24;;;;;;;18.88;10.77;;;;;;;-0.40;90.64;95364.97;5045494;28;20056;-67
2021/04/21 03:11:50;;;;;;;19.05;9.57;;;;;;;-0.51;90.02;95370.75;5049440;28;20521;-67
2021/04/21 03:14:25;;;;;;;18.05;10.23;;;;;;;-0.49;90.52;95363.59;5051989;28;20065;-67
2021/04/21 03:16:57;;;;;;;18.63;9.98;;;;;;;-0.55;90.13;95368.59;5036522;28;20041;-66
2021/04/21 03:19:28;;;;;;;17.75;9.70;;;;;;;-0.54;90.21;95367.56;5056856;28;20043;-66
2021/04/21 03:22:00;;;;;;;17.25;9.40;;;;;;;-0.51;90.04;95368.19;5052310;28;20057;-67
2021/04/21 03:24:33;;;;;;;18.13;10.00;;;;;;;-0.56;91.56;95363.59;5063387;28;20048;-66
2021/04/21 03:27:05;;;;;;;19.30;10.25;;;;;;;-0.56;91.48;95369.56;5054947;28;20043;-66
2021/04/21 03:29:40;;;;;;;16.48;9.20;;;;;;;-0.46;91.85;95363.19;5058388;28;20103;-67
2021/04/21 03:32:13;;;;;;;20.35;10.15;;;;;;;-0.59;90.83;95364.81;5057688;28;20055;-67
2021/04/21 03:34:40;;;;;;;17.75;9.85;;;;;;;-0.64;90.58;95367.19;5056762;28;20174;-67
2021/04/21 03:37:21;;;;;;;20.80;10.50;;;;;;;-0.58;91.17;95366.38;5046562;28;20407;-67
2021/04/21 03:39:49;;;;;;;17.67;9.23;;;;;;;-0.43;90.59;95373.09;5060912;28;20558;-67
2021/04/21 03:42:14;;;;;;;19.30;9.30;;;;;;;-0.43;90.14;95362.75;5055814;28;20098;-66
2021/04/21 03:44:40;;;;;;;16.50;9.43;;;;;;;-0.42;89.55;95362.56;5050094;28;20037;-67
2021/04/21 03:47:06;;;;;;;16.38;9.15;;;;;;;-0.53;89.96;95364.00;5058390;28;20041;-66
2021/04/21 03:49:33;;;;;;;17.95;9.52;;;;;;;-0.57;89.90;95367.97;5069559;28;20045;-67
2021/04/21 03:52:00;;;;;;;18.00;9.60;;;;;;;-0.65;90.15;95368.19;5060434;28;20033;-67
2021/04/21 03:54:27;;;;;;;17.63;9.15;;;;;;;-0.75;90.91;95360.06;5058014;28;20505;-67
2021/04/21 03:56:52;;;;;;;21.48;10.07;;;;;;;-0.81;91.29;95366.81;5043286;28;20045;-68
2021/04/21 03:59:19;;;;;;;19.42;10.52;;;;;;;-0.84;91.62;95367.22;5067384;28;20045;-69
2021/04/21 04:01:47;;;;;;;17.83;9.60;;;;;;;-0.73;91.08;95363.25;5064839;28;20041;-68
2021/04/21 04:04:17;;;;;;;17.70;8.95;;;;;;;-0.68;90.83;95360.84;5051419;28;20502;-69
2021/04/21 04:06:48;;;;;;;20.02;9.43;;;;;;;-0.67;90.63;95362.44;5030868;28;20038;-68
2021/04/21 04:09:18;;;;;;;16.15;9.63;;;;;;;-0.56;90.09;95354.06;5065122;28;20277;-68
2021/04/21 04:11:55;;;;;;;18.58;8.88;;;;;;;-0.55;89.63;95365.19;5060956;28;20033;-68
2021/04/21 04:14:28;;;;;;;17.38;9.40;;;;;;;-0.53;89.50;95358.81;5037954;28;20079;-68
2021/04/21 04:16:59;;;;;;;15.57;8.48;;;;;;;-0.51;89.52;95360.41;5050697;28;20041;-68
2021/04/21 04:19:25;;;;;;;16.60;8.98;;;;;;;-0.55;89.99;95363.41;5055201;28;20064;-68
2021/04/21 04:21:56;;;;;;;16.75;8.65;;;;;;;-0.62;90.29;95364.41;5039825;28;20033;-69
2021/04/21 04:24:23;;;;;;;13.85;8.65;;;;;;;-0.74;90.41;95362.44;5044123;28;20046;-68
2021/04/21 04:26:49;;;;;;;14.85;7.93;;;;;;;-0.78;90.50;95355.31;5049486;28;20052;-68
2021/04/21 04:29:15;;;;;;;15.10;8.90;;;;;;;-0.80;91.39;95362.47;5065716;28;20051;-68
2021/04/21 04:31:41;;;;;;;16.42;8.52;;;;;;;-0.58;90.55;95366.38;5069593;28;20049;-68
2021/04/21 04:34:10;;;;;;;18.17;8.30;;;;;;;-0.50;89.97;95367.16;5050312;28;20037;-68
2021/04/21 04:36:37;;;;;;;15.85;8.25;;;;;;;-0.50;89.24;95367.16;5046528;28;20041;-69
2021/04/21 04:39:05;;;;;;;14.80;8.32;;;;;;;-0.50;89.62;95369.75;5051005;28;20045;-68
2021/04/21 04:41:30;;;;;;;15.80;8.77;;;;;;;-0.48;89.53;95370.34;5046840;28;20063;-69
2021/04/21 04:43:57;;;;;;;19.02;8.35;;;;;;;-0.45;89.44;95375.13;5045072;28;20491;-68
2021/04/21 04:46:31;;;;;;;18.67;9.15;;;;;;;-0.50;90.43;95377.50;5042768;28;20127;-68
2021/04/21 04:49:03;;;;;;;15.93;8.23;;;;;;;-0.44;89.94;95366.38;5033004;28;20038;-68
2021/04/21 04:51:32;;;;;;;17.20;9.35;;;;;;;-0.46;90.86;95373.50;5042835;28;20115;-68
2021/04/21 04:54:01;;;;;;;17.40;7.88;;;;;;;-0.46;90.88;95373.50;5061766;28;20375;-69
2021/04/21 04:56:26;;;;;;;20.77;9.60;;;;;;;-0.41;90.80;95378.88;5046459;28;20115;-68
2021/04/21 04:58:54;;;;;;;16.08;8.38;;;;;;;-0.37;90.42;95383.44;5057842;28;20163;-68
2021/04/21 05:01:20;;;;;;;18.50;8.35;;;;;;;-0.34;90.05;95377.06;5052278;28;20506;-69
2021/04/21 05:03:52;;;;;;;16.10;8.77;;;;;;;-0.36;90.54;95389.41;5056119;28;20107;-69
2021/04/21 05:06:28;;;;;;;15.75;8.30;;;;;;;-0.33;90.94;95378.66;5032466;28;20069;-69
2021/04/21 05:08:58;;;;;;;16.27;8.45;;;;;;;-0.35;90.67;95385.81;5049497;28;20056;-70
2021/04/21 05:11:26;;;;;;;15.57;8.80;;;;;;;-0.28;91.04;95391.75;5060777;28;20040;-69
2021/04/21 05:13:52;;;;;;;20.55;9.15;;;;;;;-0.15;91.46;95390.16;5064293;28;20045;-69
2021/04/21 05:16:24;;;;;;;21.15;9.35;;;;;;;-0.03;91.55;95393.66;5049241;28;20037;-68
2021/04/21 05:19:08;;;;;;;16.75;9.45;;;;;;;0.10;91.70;95396.22;5062067;28;20124;-69
2021/04/21 05:22:05;;;;;;;19.00;9.40;;;;;;;0.12;91.98;95407.16;5070496;28;20040;-70
2021/04/21 05:24:39;;;;;;;13.95;8.35;;;;;;;0.17;91.88;95404.75;5044880;28;20130;-69
2021/04/21 05:27:17;;;;;;;;;;;;;;;0.25;91.87;95406.28;5057478;28;20044;-69
2021/04/21 05:30:02;;;;;;;17.08;8.10;;;;;;;0.34;92.13;95410.25;5052277;28;19924;-69
2021/04/21 05:32:58;;;;;;;17.08;8.70;;;;;;;0.48;92.33;95416.13;5058656;28;20045;-68
2021/04/21 05:36:02;;;;;;;15.93;8.60;;;;;;;0.65;92.08;95415.66;5046761;28;20064;-67
2021/04/21 05:38:55;;;;;;;16.98;8.02;;;;;;;0.57;91.75;95414.09;5059886;28;20043;-66
2021/04/21 05:41:42;;;;;;;16.63;8.40;;;;;;;0.58;92.43;95417.50;5068197;28;20051;-68
2021/04/21 05:44:54;;;;;;;13.57;7.47;;;;;;;0.75;92.69;95421.16;5052863;28;20053;-69
2021/04/21 05:48:01;;;;;;;17.58;8.50;;;;;;;0.90;92.60;95422.66;5040543;28;20072;-68
2021/04/21 05:50:30;;;;;;;16.90;8.70;;;;;;;1.15;92.51;95426.06;5043208;28;20064;-69
2021/04/21 05:53:27;;;;;;;20.77;9.13;;;;;;;1.46;91.62;95416.59;5035489;28;20112;-68
2021/04/21 05:56:23;;;;;;;15.48;8.18;;;;;;;1.87;90.40;95417.81;5042415;28;20117;-69
2021/04/21 05:59:30;;;;;;;11.93;7.68;;;;;;;2.10;89.60;95421.56;5051934;28;20041;-69
2021/04/21 06:01:56;;;;;;;13.45;7.88;;;;;;;2.44;88.50;95419.31;5050308;28;20045;-68
2021/04/21 06:04:25;;;;;;;11.98;7.32;;;;;;;2.53;88.00;95415.41;5055888;28;20049;-69
2021/04/21 06:07:17;;;;;;;17.95;7.70;;;;;;;2.39;89.25;95420.00;5043021;28;20059;-69
2021/04/21 06:09:42;;;;;;;12.35;7.57;;;;;;;2.32;90.18;95418.50;5053829;28;20053;-70
2021/04/21 06:12:13;;;;;;;14.38;7.95;;;;;;;2.37;88.88;95422.03;5056476;28;20052;-70
2021/04/21 06:14:39;;;;;;;12.82;7.82;;;;;;;2.70;87.00;95419.97;5051698;28;20106;-69
2021/04/21 06:17:05;;;;;;;15.05;8.65;;;;;;;2.91;86.37;95424.66;5046336;28;20486;-69
2021/04/21 06:19:31;;;;;;;17.73;8.93;;;;;;;2.83;88.92;95419.81;5051568;28;20127;-69
2021/04/21 06:21:58;;;;;;;17.55;8.45;;;;;;;2.76;88.89;95413.91;5053674;28;20487;-69
2021/04/21 06:24:29;;;;;;;15.68;8.70;;;;;;;2.98;88.44;95421.19;5056096;28;20036;-69
2021/04/21 06:27:12;;;;;;;13.85;8.20;;;;;;;2.97;89.24;95430.00;5051932;28;20059;-70
2021/04/21 06:29:38;;;;;;;12.35;7.50;;;;;;;3.41;86.15;95430.53;5055860;28;20080;-69
2021/04/21 06:32:06;;;;;;;11.27;6.55;;;;;;;4.21;79.59;95429.09;5049848;28;20391;-69
2021/04/21 06:34:33;;;;;;;11.90;7.25;;;;;;;4.25;80.92;95430.22;5051190;28;20041;-70
2021/04/21 06:36:59;;;;;;;9.52;6.32;;;;;;;4.45;80.15;95424.59;5056845;28;20041;-70
2021/04/21 06:39:31;;;;;;;11.93;6.50;;;;;;;4.78;77.83;95427.50;5046766;28;20053;-69
2021/04/21 06:42:03;;;;;;;16.63;7.03;;;;;;;4.55;80.19;95429.19;5064033;28;20147;-67
2021/04/21 06:44:50;;;;;;;11.48;6.45;;;;;;;4.52;80.65;95427.06;5037833;28;20041;-68
2021/04/21 06:47:24;;;;;;;8.20;5.30;;;;;;;5.14;76.89;95425.50;5046870;28;20044;-68
2021/04/21 06:50:05;;;;;;;8.15;5.55;;;;;;;5.41;75.25;95430.09;5054477;28;20045;-67
2021/04/21 06:52:38;;;;;;;6.85;4.70;;;;;;;5.53;73.94;95433.41;5056350;28;20045;-67
2021/04/21 06:55:07;;;;;;;5.82;4.32;;;;;;;5.68;73.64;95431.00;5052645;28;20418;-69
2021/04/21 06:57:33;;;;;;;7.47;5.10;;;;;;;5.80;75.42;95437.97;5055638;28;20052;-68
2021/04/21 07:00:15;;;;;;;14.18;5.55;;;;;;;5.49;75.79;95442.75;5061197;28;20049;-68
2021/04/21 07:02:43;;;;;;;6.43;4.80;;;;;;;5.49;76.28;95434.94;5050623;28;20114;-68
2021/04/21 07:05:25;;;;;;;7.32;5.13;;;;;;;5.32;77.77;95440.94;5050954;28;20075;-67
2021/04/21 07:07:51;;;;;;;6.65;4.70;;;;;;;5.46;76.12;95443.22;5055304;28;20052;-68
2021/04/21 07:10:17;;;;;;;8.82;5.35;;;;;;;5.64;73.65;95440.34;5055255;28;20508;-67
2021/04/21 07:12:46;;;;;;;6.68;4.55;;;;;;;5.58;74.21;95436.09;5059882;28;20494;-67
2021/04/21 07:15:12;;;;;;;8.32;4.80;;;;;;;5.90;72.58;95438.91;5051643;28;20410;-68
2021/04/21 07:17:39;;;;;;;7.13;4.80;;;;;;;5.95;75.23;95438.19;5055872;28;20045;-68
2021/04/21 07:20:06;;;;;;;6.63;4.80;;;;;;;5.90;74.97;95451.16;5043525;28;20037;-67
2021/04/21 07:22:32;;;;;;;6.88;4.88;;;;;;;5.84;74.53;95449.50;5068909;28;20052;-67
2021/04/21 07:24:58;;;;;;;7.80;4.88;;;;;;;5.86;74.41;95444.81;5039811;28;20064;-68
2021/04/21 07:27:24;;;;;;;9.45;4.88;;;;;;;6.44;70.32;95447.13;5053537;28;20246;-69
2021/04/21 07:29:49;;;;;;;7.30;4.55;;;;;;;6.86;69.35;95444.72;5044712;28;20040;-68
2021/04/21 07:32:20;;;;;;;7.30;4.75;;;;;;;7.10;68.73;95450.44;5049574;28;20698;-68
2021/04/21 07:35:00;;;;;;;7.85;5.03;;;;;;;6.96;71.70;95444.03;5031882;28;20495;-67
2021/04/21 07:37:36;;;;;;;10.13;5.00;;;;;;;6.72;74.14;95446.94;5033108;28;20041;-68
2021/04/21 07:40:24;;;;;;;7.28;5.13;;;;;;;6.45;73.47;95449.53;5051000;28;20111;-68
2021/04/21 07:42:50;;;;;;;10.52;6.03;;;;;;;6.60;72.86;95438.44;5038052;28;20526;-68
2021/04/21 07:45:20;;;;;;;10.23;5.82;;;;;;;6.71;70.86;95442.75;5045129;28;20071;-68
2021/04/21 07:47:47;;;;;;;10.65;6.10;;;;;;;6.55;75.10;95443.59;5053309;28;20055;-68
2021/04/21 07:50:13;;;;;;;10.73;5.60;;;;;;;6.87;70.07;95445.53;5068365;28;20044;-67
2021/04/21 07:52:39;;;;;;;12.23;5.10;;;;;;;7.22;66.25;95437.19;5056474;28;20185;-68
2021/04/21 07:55:15;;;;;;;7.63;4.78;;;;;;;7.72;64.19;95440.44;5060940;28;20044;-67
2021/04/21 07:57:46;;;;;;;11.23;5.60;;;;;;;7.56;65.95;95446.63;5057643;28;20040;-68
2021/04/21 08:00:28;;;;;;;13.82;6.18;;;;;;;7.40;69.11;95446.50;5057215;28;20041;-69
2021/04/21 08:02:54;;;;;;;9.13;5.65;;;;;;;7.35;68.26;95451.69;5052470;28;20403;-69
2021/04/21 08:05:19;;;;;;;11.55;6.15;;;;;;;7.48;67.83;95441.84;5058466;28;20048;-68
2021/04/21 08:08:00;;;;;;;10.75;5.38;;;;;;;7.53;65.80;95441.84;5056607;28;20052;-69
2021/04/21 08:10:30;;;;;;;10.20;6.00;;;;;;;7.66;66.45;95446.69;5056921;28;20055;-69
2021/04/21 08:12:58;;;;;;;9.60;5.55;;;;;;;7.66;67.00;95446.69;5069276;28;20098;-69
2021/04/21 08:15:36;;;;;;;7.93;5.68;;;;;;;7.68;67.39;95444.59;5059354;28;20048;-69
2021/04/21 08:18:07;;;;;;;8.50;5.18;;;;;;;7.51;66.76;95444.72;5055374;28;20048;-69
2021/04/21 08:20:55;;;;;;;10.43;5.97;;;;;;;7.91;64.44;95447.88;5053420;28;20081;-67
2021/04/21 08:23:22;;;;;;;8.55;5.93;;;;;;;8.21;62.53;95449.88;5051149;28;20514;-67
2021/04/21 08:25:49;;;;;;;10.77;5.95;;;;;;;8.45;63.74;95442.41;5050410;28;20032;-67
2021/04/21 08:28:14;;;;;;;12.30;6.07;;;;;;;8.39;65.79;95448.66;5053481;28;20387;-69
2021/04/21 08:30:55;;;;;;;10.80;6.40;;;;;;;8.69;63.21;95444.56;5049537;28;20070;-67
2021/04/21 08:33:21;;;;;;;10.93;6.15;;;;;;;8.72;61.85;95446.69;5052856;28;20056;-66
2021/04/21 08:35:46;;;;;;;9.68;6.30;;;;;;;8.82;63.35;95441.47;5043641;28;20053;-66
2021/04/21 08:38:13;;;;;;;10.13;5.97;;;;;;;8.60;64.56;95438.25;5050994;28;20064;-67
2021/04/21 08:40:40;;;;;;;12.43;6.30;;;;;;;8.56;64.13;95442.44;5040496;28;20303;-66
2021/04/21 08:43:07;;;;;;;14.05;7.50;;;;;;;8.62;62.64;95436.13;5049552;28;20052;-67
2021/04/21 08:45:34;;;;;;;11.05;7.07;;;;;;;8.73;61.64;95437.75;5053350;28;20052;-67
2021/04/21 08:48:02;;;;;;;13.27;7.30;;;;;;;8.97;61.92;95447.78;5047115;28;20041;-66
2021/04/21 08:50:31;;;;;;;15.18;7.57;;;;;;;9.21;63.63;95436.75;5044716;28;20045;-67
2021/04/21 08:53:02;;;;;;;12.13;7.70;;;;;;;9.46;62.97;95442.03;5048225;28;20037;-66
2021/04/21 08:55:28;;;;;;;13.70;8.07;;;;;;;9.85;59.86;95440.69;5048904;28;20493;-66
2021/04/21 08:57:56;;;;;;;13.05;8.75;;;;;;;9.96;57.00;95441.44;5047413;28;20280;-68
2021/04/21 09:00:22;;;;;;;12.70;7.93;;;;;;;10.15;58.97;95439.81;5047462;28;20041;-66
2021/04/21 09:02:48;;;;;;;14.32;8.35;;;;;;;10.62;50.74;95437.03;5049645;28;20049;-66
2021/04/21 09:05:16;;;;;;;12.93;8.13;;;;;;;10.68;53.64;95441.22;5047924;28;20052;-66
2021/04/21 09:07:43;;;;;;;16.85;8.70;;;;;;;10.37;56.16;95430.81;5046479;28;20041;-66
2021/04/21 09:10:10;;;;;;;14.75;8.68;;;;;;;10.37;54.84;95431.63;5051683;28;20493;-67
2021/04/21 09:12:36;;;;;;;11.40;7.55;;;;;;;10.37;55.59;95436.88;5045497;28;20041;-66
2021/04/21 09:15:07;;;;;;;14.73;7.57;;;;;;;10.56;58.11;95438.91;5046672;28;20102;-68
2021/04/21 09:17:41;;;;;;;13.55;8.82;;;;;;;10.85;55.05;95436.38;5044239;28;20465;-66
2021/04/21 09:20:14;;;;;;;13.43;8.90;;;;;;;10.65;51.87;95439.91;5045912;28;20061;-66
2021/04/21 09:23:00;;;;;;;17.58;8.95;;;;;;;10.69;52.34;95442.81;5045799;28;20041;-67
2021/04/21 09:25:41;;;;;;;12.07;7.97;;;;;;;11.09;52.97;95430.41;5046132;28;20053;-66
2021/04/21 09:28:07;;;;;;;12.50;8.23;;;;;;;11.33;48.50;95429.75;5045116;28;20494;-68
2021/04/21 09:30:37;;;;;;;12.40;8.48;;;;;;;11.27;51.03;95432.41;5051273;28;20045;-66
2021/04/21 09:33:05;;;;;;;11.98;8.18;;;;;;;11.41;49.11;95434.44;5050203;28;20037;-67
2021/04/21 09:35:41;;;;;;;15.40;8.02;;;;;;;11.50;51.08;95430.13;5053132;28;20520;-66
2021/04/21 09:38:11;;;;;;;12.25;8.10;;;;;;;11.56;52.41;95436.91;5050479;28;20044;-68
2021/04/21 09:40:37;;;;;;;13.48;8.25;;;;;;;11.66;49.32;95432.63;5051690;28;20620;-67
2021/04/21 09:43:05;;;;;;;12.73;8.48;;;;;;;11.68;49.57;95426.03;5051933;28;20037;-67
2021/04/21 09:45:40;;;;;;;12.35;8.40;;;;;;;11.60;49.39;95424.75;5049542;28;20053;-68
2021/04/21 09:48:13;;;;;;;14.02;8.05;;;;;;;11.80;47.24;95425.63;5052363;28;20093;-69
2021/04/21 09:50:41;;;;;;;11.55;8.27;;;;;;;11.79;46.51;95421.41;5051578;28;20056;-68
2021/04/21 09:53:21;;;;;;;13.18;8.02;;;;;;;12.26;43.88;95425.19;5051593;28;20033;-70
2021/04/21 09:56:16;;;;;;;13.52;8.70;;;;;;;12.52;46.70;95427.50;5052574;28;20045;-68
2021/04/21 09:58:55;;;;;;;12.88;8.20;;;;;;;12.24;48.78;95435.25;5053678;28;20112;-68
2021/04/21 10:01:26;;;;;;;11.85;8.32;;;;;;;12.79;44.52;95429.53;5056331;28;20044;-68
2021/04/21 10:04:03;;;;;;;12.27;8.07;;;;;;;13.49;42.82;95432.53;5052720;28;20494;-69
2021/04/21 10:06:30;;;;;;;11.65;8.02;;;;;;;13.45;46.31;95426.25;5039737;28;20049;-69
2021/04/21 10:08:56;;;;;;;12.60;8.68;;;;;;;13.70;41.52;95427.66;5047340;28;20507;-69
2021/04/21 10:11:22;;;;;;;13.25;8.80;;;;;;;13.87;40.72;95427.09;5053410;28;20053;-68
2021/04/21 10:13:53;;;;;;;12.27;8.55;;;;;;;14.09;39.74;95417.72;5053924;28;20047;-68
2021/04/21 10:16:20;;;;;;;14.27;8.75;;;;;;;14.66;40.84;95415.53;5057298;28;20051;-68
2021/04/21 10:18:46;;;;;;;12.10;7.97;;;;;;;15.02;39.57;95414.75;5058822;28;20037;-69
2021/04/21 10:21:14;;;;;;;11.07;8.52;;;;;;;15.36;40.33;95410.81;5052618;28;20044;-68
2021/04/21 10:23:40;;;;;;;13.85;8.00;;;;;;;16.88;37.63;95412.66;5054989;28;20045;-68
2021/04/21 10:26:08;;;;;;;13.95;8.57;;;;;;;16.49;36.96;95422.28;5054065;28;20045;-69
2021/04/21 10:28:34;;;;;;;12.20;8.57;;;;;;;14.98;38.65;95416.44;5056928;28;20529;-68
2021/04/21 10:31:02;;;;;;;11.93;8.57;;;;;;;17.60;32.63;95410.47;5053480;28;20051;-68
2021/04/21 10:33:28;;;;;;;12.07;7.90;;;;;;;18.47;33.82;95410.13;5056228;28;20041;-68
2021/04/21 10:35:57;;;;;;;11.75;8.43;;;;;;;18.11;30.88;95402.63;5051857;28;20106;-69
2021/04/21 10:38:25;;;;;;;11.00;7.70;;;;;;;16.38;35.85;95401.31;5038401;28;20136;-68
2021/04/21 10:41:38;;;;;;;15.05;8.43;;;;;;;16.00;34.86;95396.50;5049627;28;20044;-69
2021/04/21 10:44:09;;;;;;;10.93;7.95;;;;;;;14.82;40.75;95396.69;5040220;28;20038;-69
2021/04/21 10:47:03;;;;;;;15.43;8.88;;;;;;;14.13;39.09;95402.81;5033385;28;20090;-69
2021/04/21 10:49:39;;;;;;;12.98;8.57;;;;;;;13.59;40.07;95400.63;5053395;28;20036;-68
2021/04/21 10:52:28;;;;;;;12.05;8.40;;;;;;;14.49;37.84;95388.88;5069107;28;20082;-68
2021/04/21 10:55:22;;;;;;;14.25;7.82;;;;;;;14.11;39.15;95397.06;5048115;28;20057;-69
2021/04/21 10:57:59;;;;;;;13.70;8.55;;;;;;;13.78;39.69;95392.63;5056084;28;20040;-68
2021/04/21 11:00:24;;;;;;;12.85;8.35;;;;;;;13.53;39.23;95388.53;5046263;28;20091;-67
2021/04/21 11:03:13;;;;;;;12.82;7.53;;;;;;;13.43;39.90;95386.09;5048361;28;20052;-68
2021/04/21 11:05:44;;;;;;;11.30;7.88;;;;;;;13.77;38.95;95384.97;5034574;28;20041;-68
2021/04/21 11:08:19;;;;;;;15.30;7.55;;;;;;;14.28;39.29;95389.31;5032540;28;20044;-68
2021/04/21 11:10:58;;;;;;;12.18;8.30;;;;;;;17.83;31.44;95379.84;5030966;28;20084;-68
2021/04/21 11:13:24;;;;;;;15.07;8.93;;;;;;;18.80;30.10;95374.81;5032322;28;20045;-68
2021/04/21 11:15:52;;;;;;;13.23;8.73;;;;;;;19.39;27.90;95373.09;5051548;28;20040;-70
2021/04/21 11:18:31;;;;;;;9.95;7.75;;;;;;;19.37;27.88;95370.75;5051688;28;20044;-70
2021/04/21 11:21:00;;;;;;;11.68;8.00;;;;;;;19.98;29.35;95369.31;5039736;28;20141;-70
2021/04/21 11:23:56;;;;;;;9.68;7.90;;;;;;;20.76;26.10;95366.75;5043410;28;20419;-69
2021/04/21 11:28:56;;;;;;;9.48;7.60;;;;;;;22.34;24.99;95359.34;5033152;28;20038;-68
2021/04/21 11:34:30;;;;;;;11.10;8.73;;;;;;;22.67;25.54;95356.22;5052675;28;20600;-68
2021/04/21 11:36:59;;;;;;;14.10;9.55;;;;;;;21.71;25.94;95354.78;5050333;28;20713;-68
2021/04/21 11:39:43;;;;;;;13.45;9.35;;;;;;;20.34;26.06;95346.41;5046903;28;20044;-69
2021/04/21 11:42:31;;;;;;;16.00;9.45;;;;;;;20.64;25.70;95351.47;5059452;28;20116;-69
2021/04/21 11:45:01;;;;;;;11.52;9.38;;;;;;;21.53;24.48;95354.31;5058776;28;20048;-70
2021/04/21 11:47:35;;;;;;;11.73;9.07;;;;;;;23.59;25.87;95344.22;5053950;28;20057;-68
2021/04/21 11:50:01;;;;;;;11.80;8.80;;;;;;;23.35;23.54;95338.03;5047374;28;20045;-68
2021/04/21 11:52:51;;;;;;;9.93;8.20;;;;;;;21.11;26.14;95334.84;5063235;28;20572;-69
2021/04/21 11:55:40;;;;;;;9.63;8.27;;;;;;;23.60;22.15;95340.38;5056503;28;20059;-68
2021/04/21 11:58:28;;;;;;;12.95;9.02;;;;;;;24.42;20.75;95334.75;5055383;28;20137;-68
2021/04/21 12:00:57;;;;;;;12.25;8.50;;;;;;;23.94;21.62;95337.91;5047777;28;20037;-68
2021/04/21 12:03:23;;;;;;;13.90;9.27;;;;;;;22.09;24.34;95343.41;5049709;28;20325;-68
2021/04/21 12:05:56;;;;;;;10.23;8.95;;;;;;;21.06;25.76;95332.44;5049919;28;20536;-69